sensor_id;sensor_type;location;lat;lon;timestamp;P1;durP1;ratioP1;P2;durP2;ratioP2
52057;SDS011;38063;53.210;6.504;2024-01-15T00:01:27;6.82;;;1.40;;
52057;SDS011;38063;53.210;6.504;2024-01-15T00:03:52;4.70;;;1.20;;
52057;SDS011;38063;53.210;6.504;2024-01-15T00:06:18;5.95;;;1.52;;
52057;SDS011;38063;53.210;6.504;2024-01-15T00:08:43;11.93;;;1.88;;
52057;SDS011;38063;53.210;6.504;2024-01-15T00:11:09;4.13;;;1.00;;
52057;SDS011;38063;53.210;6.504;2024-01-15T00:13:35;4.70;;;1.20;;
52057;SDS011;38063;53.210;6.504;2024-01-15T00:16:00;7.45;;;2.53;;
52057;SDS011;38063;53.210;6.504;2024-01-15T00:18:26;8.07;;;1.42;;
52057;SDS011;38063;53.210;6.504;2024-01-15T00:20:51;2.72;;;1.02;;
52057;SDS011;38063;53.210;6.504;2024-01-15T00:23:17;3.08;;;0.75;;
52057;SDS011;38063;53.210;6.504;2024-01-15T00:25:43;9.88;;;1.17;;
52057;SDS011;38063;53.210;6.504;2024-01-15T00:28:08;3.90;;;0.90;;
52057;SDS011;38063;53.210;6.504;2024-01-15T00:30:34;7.43;;;1.50;;
52057;SDS011;38063;53.210;6.504;2024-01-15T00:33:00;6.07;;;1.00;;
52057;SDS011;38063;53.210;6.504;2024-01-15T00:35:25;4.85;;;1.00;;
52057;SDS011;38063;53.210;6.504;2024-01-15T00:37:51;5.75;;;0.77;;
52057;SDS011;38063;53.210;6.504;2024-01-15T00:40:17;5.00;;;0.95;;
52057;SDS011;38063;53.210;6.504;2024-01-15T00:42:42;6.00;;;0.90;;
52057;SDS011;38063;53.210;6.504;2024-01-15T00:45:08;12.00;;;1.60;;
52057;SDS011;38063;53.210;6.504;2024-01-15T00:47:34;4.47;;;1.45;;
52057;SDS011;38063;53.210;6.504;2024-01-15T00:50:00;8.48;;;1.35;;
52057;SDS011;38063;53.210;6.504;2024-01-15T00:52:25;3.88;;;0.90;;
52057;SDS011;38063;53.210;6.504;2024-01-15T00:54:51;6.47;;;1.23;;
52057;SDS011;38063;53.210;6.504;2024-01-15T00:57:17;7.63;;;1.17;;
52057;SDS011;38063;53.210;6.504;2024-01-15T00:59:44;7.32;;;1.20;;
52057;SDS011;38063;53.210;6.504;2024-01-15T01:02:10;14.80;;;1.70;;
52057;SDS011;38063;53.210;6.504;2024-01-15T01:04:35;11.27;;;1.65;;
52057;SDS011;38063;53.210;6.504;2024-01-15T01:07:01;10.95;;;1.80;;
52057;SDS011;38063;53.210;6.504;2024-01-15T01:09:27;18.70;;;2.42;;
52057;SDS011;38063;53.210;6.504;2024-01-15T01:11:55;13.80;;;3.10;;
52057;SDS011;38063;53.210;6.504;2024-01-15T01:14:21;19.25;;;3.05;;
52057;SDS011;38063;53.210;6.504;2024-01-15T01:16:47;16.35;;;1.77;;
52057;SDS011;38063;53.210;6.504;2024-01-15T01:19:13;13.60;;;1.83;;
52057;SDS011;38063;53.210;6.504;2024-01-15T01:21:38;10.35;;;1.48;;
52057;SDS011;38063;53.210;6.504;2024-01-15T01:24:04;12.13;;;2.00;;
52057;SDS011;38063;53.210;6.504;2024-01-15T01:26:30;14.45;;;2.50;;
52057;SDS011;38063;53.210;6.504;2024-01-15T01:28:56;14.35;;;1.70;;
52057;SDS011;38063;53.210;6.504;2024-01-15T01:31:22;8.80;;;1.70;;
52057;SDS011;38063;53.210;6.504;2024-01-15T01:33:48;14.82;;;1.90;;
52057;SDS011;38063;53.210;6.504;2024-01-15T01:36:14;10.63;;;1.73;;
52057;SDS011;38063;53.210;6.504;2024-01-15T01:38:40;9.77;;;1.75;;
52057;SDS011;38063;53.210;6.504;2024-01-15T01:41:06;15.43;;;1.70;;
52057;SDS011;38063;53.210;6.504;2024-01-15T01:43:32;8.60;;;1.52;;
52057;SDS011;38063;53.210;6.504;2024-01-15T01:45:58;11.80;;;1.50;;
52057;SDS011;38063;53.210;6.504;2024-01-15T01:48:26;17.67;;;1.85;;
52057;SDS011;38063;53.210;6.504;2024-01-15T01:50:56;8.45;;;1.48;;
52057;SDS011;38063;53.210;6.504;2024-01-15T01:53:24;9.18;;;1.70;;
52057;SDS011;38063;53.210;6.504;2024-01-15T01:55:51;13.52;;;1.60;;
52057;SDS011;38063;53.210;6.504;2024-01-15T01:58:18;16.83;;;2.00;;
52057;SDS011;38063;53.210;6.504;2024-01-15T02:00:45;9.68;;;1.98;;
52057;SDS011;38063;53.210;6.504;2024-01-15T02:03:12;20.05;;;2.15;;
52057;SDS011;38063;53.210;6.504;2024-01-15T02:05:38;10.00;;;2.03;;
52057;SDS011;38063;53.210;6.504;2024-01-15T02:08:05;7.53;;;1.58;;
52057;SDS011;38063;53.210;6.504;2024-01-15T02:10:31;13.93;;;2.08;;
52057;SDS011;38063;53.210;6.504;2024-01-15T02:12:57;10.55;;;2.83;;
52057;SDS011;38063;53.210;6.504;2024-01-15T02:15:23;11.70;;;2.13;;
52057;SDS011;38063;53.210;6.504;2024-01-15T02:18:02;9.55;;;2.03;;
52057;SDS011;38063;53.210;6.504;2024-01-15T02:20:30;14.77;;;2.08;;
52057;SDS011;38063;53.210;6.504;2024-01-15T02:23:06;16.13;;;3.08;;
52057;SDS011;38063;53.210;6.504;2024-01-15T02:25:40;13.98;;;1.65;;
52057;SDS011;38063;53.210;6.504;2024-01-15T02:28:11;11.60;;;1.92;;
52057;SDS011;38063;53.210;6.504;2024-01-15T02:30:38;11.70;;;1.42;;
52057;SDS011;38063;53.210;6.504;2024-01-15T02:33:05;13.07;;;1.38;;
52057;SDS011;38063;53.210;6.504;2024-01-15T02:35:31;14.35;;;4.03;;
52057;SDS011;38063;53.210;6.504;2024-01-15T02:37:57;7.75;;;1.23;;
52057;SDS011;38063;53.210;6.504;2024-01-15T02:40:22;10.93;;;1.65;;
52057;SDS011;38063;53.210;6.504;2024-01-15T02:42:48;8.70;;;1.35;;
52057;SDS011;38063;53.210;6.504;2024-01-15T02:45:13;8.85;;;1.80;;
52057;SDS011;38063;53.210;6.504;2024-01-15T02:47:39;14.30;;;1.77;;
52057;SDS011;38063;53.210;6.504;2024-01-15T02:50:05;19.60;;;2.80;;
52057;SDS011;38063;53.210;6.504;2024-01-15T02:52:31;8.20;;;1.50;;
52057;SDS011;38063;53.210;6.504;2024-01-15T02:54:57;14.02;;;1.88;;
52057;SDS011;38063;53.210;6.504;2024-01-15T02:57:22;21.75;;;4.75;;
52057;SDS011;38063;53.210;6.504;2024-01-15T02:59:48;10.45;;;1.67;;
52057;SDS011;38063;53.210;6.504;2024-01-15T03:02:14;9.77;;;1.30;;
52057;SDS011;38063;53.210;6.504;2024-01-15T03:04:46;7.07;;;1.20;;
52057;SDS011;38063;53.210;6.504;2024-01-15T03:07:11;4.47;;;1.38;;
52057;SDS011;38063;53.210;6.504;2024-01-15T03:09:37;36.75;;;3.47;;
52057;SDS011;38063;53.210;6.504;2024-01-15T03:12:03;11.63;;;2.30;;
52057;SDS011;38063;53.210;6.504;2024-01-15T03:14:29;16.50;;;3.13;;
52057;SDS011;38063;53.210;6.504;2024-01-15T03:16:55;19.42;;;3.03;;
52057;SDS011;38063;53.210;6.504;2024-01-15T03:19:21;9.05;;;1.38;;
52057;SDS011;38063;53.210;6.504;2024-01-15T03:21:46;14.82;;;2.80;;
52057;SDS011;38063;53.210;6.504;2024-01-15T03:24:12;22.05;;;2.65;;
52057;SDS011;38063;53.210;6.504;2024-01-15T03:26:38;15.30;;;2.50;;
52057;SDS011;38063;53.210;6.504;2024-01-15T03:29:03;14.43;;;2.65;;
52057;SDS011;38063;53.210;6.504;2024-01-15T03:31:29;18.27;;;2.58;;
52057;SDS011;38063;53.210;6.504;2024-01-15T03:33:56;18.35;;;2.85;;
52057;SDS011;38063;53.210;6.504;2024-01-15T03:36:21;18.77;;;2.47;;
52057;SDS011;38063;53.210;6.504;2024-01-15T03:38:47;15.80;;;2.17;;
52057;SDS011;38063;53.210;6.504;2024-01-15T03:41:13;11.57;;;2.08;;
52057;SDS011;38063;53.210;6.504;2024-01-15T03:43:38;15.52;;;1.92;;
52057;SDS011;38063;53.210;6.504;2024-01-15T03:46:05;16.35;;;2.45;;
52057;SDS011;38063;53.210;6.504;2024-01-15T03:48:31;12.63;;;2.17;;
52057;SDS011;38063;53.210;6.504;2024-01-15T03:50:56;16.70;;;2.17;;
52057;SDS011;38063;53.210;6.504;2024-01-15T03:53:22;12.63;;;1.77;;
52057;SDS011;38063;53.210;6.504;2024-01-15T03:55:48;16.05;;;2.80;;
52057;SDS011;38063;53.210;6.504;2024-01-15T03:58:14;11.18;;;2.25;;
52057;SDS011;38063;53.210;6.504;2024-01-15T04:00:40;22.13;;;3.60;;
52057;SDS011;38063;53.210;6.504;2024-01-15T04:03:06;10.00;;;1.23;;
52057;SDS011;38063;53.210;6.504;2024-01-15T04:05:32;11.68;;;3.10;;
52057;SDS011;38063;53.210;6.504;2024-01-15T04:07:57;19.55;;;3.55;;
52057;SDS011;38063;53.210;6.504;2024-01-15T04:10:23;6.75;;;2.30;;
52057;SDS011;38063;53.210;6.504;2024-01-15T04:12:48;5.40;;;1.88;;
52057;SDS011;38063;53.210;6.504;2024-01-15T04:15:14;7.32;;;1.65;;
52057;SDS011;38063;53.210;6.504;2024-01-15T04:17:40;7.57;;;1.30;;
52057;SDS011;38063;53.210;6.504;2024-01-15T04:20:06;9.95;;;1.25;;
52057;SDS011;38063;53.210;6.504;2024-01-15T04:22:33;12.93;;;3.17;;
52057;SDS011;38063;53.210;6.504;2024-01-15T04:25:02;7.60;;;1.40;;
52057;SDS011;38063;53.210;6.504;2024-01-15T04:27:28;12.48;;;2.92;;
52057;SDS011;38063;53.210;6.504;2024-01-15T04:29:54;12.43;;;1.60;;
52057;SDS011;38063;53.210;6.504;2024-01-15T04:32:19;9.30;;;1.65;;
52057;SDS011;38063;53.210;6.504;2024-01-15T04:34:45;4.63;;;1.02;;
52057;SDS011;38063;53.210;6.504;2024-01-15T04:37:11;7.13;;;1.30;;
52057;SDS011;38063;53.210;6.504;2024-01-15T04:39:36;8.00;;;1.13;;
52057;SDS011;38063;53.210;6.504;2024-01-15T04:42:02;6.57;;;1.00;;
52057;SDS011;38063;53.210;6.504;2024-01-15T04:44:28;8.43;;;1.27;;
52057;SDS011;38063;53.210;6.504;2024-01-15T04:46:54;6.53;;;1.00;;
52057;SDS011;38063;53.210;6.504;2024-01-15T04:49:20;10.90;;;3.00;;
52057;SDS011;38063;53.210;6.504;2024-01-15T04:51:45;7.80;;;1.20;;
52057;SDS011;38063;53.210;6.504;2024-01-15T04:54:11;5.10;;;1.35;;
52057;SDS011;38063;53.210;6.504;2024-01-15T04:56:37;5.10;;;0.88;;
52057;SDS011;38063;53.210;6.504;2024-01-15T04:59:03;4.15;;;0.98;;
52057;SDS011;38063;53.210;6.504;2024-01-15T05:01:32;4.43;;;0.90;;
52057;SDS011;38063;53.210;6.504;2024-01-15T05:03:58;5.60;;;1.30;;
52057;SDS011;38063;53.210;6.504;2024-01-15T05:06:24;9.93;;;1.65;;
52057;SDS011;38063;53.210;6.504;2024-01-15T05:08:49;5.03;;;1.02;;
52057;SDS011;38063;53.210;6.504;2024-01-15T05:11:15;4.80;;;1.00;;
52057;SDS011;38063;53.210;6.504;2024-01-15T05:13:41;7.38;;;0.80;;
52057;SDS011;38063;53.210;6.504;2024-01-15T05:16:06;5.60;;;1.42;;
52057;SDS011;38063;53.210;6.504;2024-01-15T05:18:32;7.18;;;1.02;;
52057;SDS011;38063;53.210;6.504;2024-01-15T05:20:58;5.18;;;0.88;;
52057;SDS011;38063;53.210;6.504;2024-01-15T05:23:23;4.47;;;0.73;;
52057;SDS011;38063;53.210;6.504;2024-01-15T05:25:49;6.00;;;1.50;;
52057;SDS011;38063;53.210;6.504;2024-01-15T05:28:15;8.25;;;1.30;;
52057;SDS011;38063;53.210;6.504;2024-01-15T05:30:41;9.32;;;1.40;;
52057;SDS011;38063;53.210;6.504;2024-01-15T05:33:06;5.55;;;1.33;;
52057;SDS011;38063;53.210;6.504;2024-01-15T05:35:32;11.65;;;1.60;;
52057;SDS011;38063;53.210;6.504;2024-01-15T05:37:58;12.52;;;3.88;;
52057;SDS011;38063;53.210;6.504;2024-01-15T05:40:24;14.80;;;2.65;;
52057;SDS011;38063;53.210;6.504;2024-01-15T05:42:49;12.25;;;1.40;;
52057;SDS011;38063;53.210;6.504;2024-01-15T05:45:15;14.50;;;2.53;;
52057;SDS011;38063;53.210;6.504;2024-01-15T05:47:41;18.05;;;1.92;;
52057;SDS011;38063;53.210;6.504;2024-01-15T05:50:07;16.67;;;1.77;;
52057;SDS011;38063;53.210;6.504;2024-01-15T05:52:33;11.23;;;1.90;;
52057;SDS011;38063;53.210;6.504;2024-01-15T05:54:59;12.57;;;1.83;;
52057;SDS011;38063;53.210;6.504;2024-01-15T05:57:24;10.25;;;1.60;;
52057;SDS011;38063;53.210;6.504;2024-01-15T05:59:50;7.38;;;1.42;;
52057;SDS011;38063;53.210;6.504;2024-01-15T06:02:16;18.15;;;1.90;;
52057;SDS011;38063;53.210;6.504;2024-01-15T06:04:41;12.02;;;1.83;;
52057;SDS011;38063;53.210;6.504;2024-01-15T06:07:07;16.60;;;2.00;;
52057;SDS011;38063;53.210;6.504;2024-01-15T06:09:33;11.82;;;1.92;;
52057;SDS011;38063;53.210;6.504;2024-01-15T06:11:58;14.82;;;2.88;;
52057;SDS011;38063;53.210;6.504;2024-01-15T06:14:24;16.92;;;2.53;;
52057;SDS011;38063;53.210;6.504;2024-01-15T06:16:50;13.77;;;2.08;;
52057;SDS011;38063;53.210;6.504;2024-01-15T06:19:15;15.45;;;2.72;;
52057;SDS011;38063;53.210;6.504;2024-01-15T06:21:41;14.80;;;2.47;;
52057;SDS011;38063;53.210;6.504;2024-01-15T06:24:07;11.93;;;1.80;;
52057;SDS011;38063;53.210;6.504;2024-01-15T06:26:34;15.88;;;2.13;;
52057;SDS011;38063;53.210;6.504;2024-01-15T06:29:00;8.95;;;2.05;;
52057;SDS011;38063;53.210;6.504;2024-01-15T06:31:26;10.20;;;1.80;;
52057;SDS011;38063;53.210;6.504;2024-01-15T06:33:52;17.52;;;2.85;;
52057;SDS011;38063;53.210;6.504;2024-01-15T06:36:17;4.82;;;1.85;;
52057;SDS011;38063;53.210;6.504;2024-01-15T06:38:43;10.57;;;2.30;;
52057;SDS011;38063;53.210;6.504;2024-01-15T06:41:09;13.93;;;2.22;;
52057;SDS011;38063;53.210;6.504;2024-01-15T06:43:35;21.25;;;2.40;;
52057;SDS011;38063;53.210;6.504;2024-01-15T06:46:00;15.40;;;1.85;;
52057;SDS011;38063;53.210;6.504;2024-01-15T06:48:26;22.58;;;2.38;;
52057;SDS011;38063;53.210;6.504;2024-01-15T06:50:52;10.93;;;2.00;;
52057;SDS011;38063;53.210;6.504;2024-01-15T06:53:17;20.00;;;2.08;;
52057;SDS011;38063;53.210;6.504;2024-01-15T06:55:43;16.88;;;3.00;;
52057;SDS011;38063;53.210;6.504;2024-01-15T06:58:09;10.95;;;1.85;;
52057;SDS011;38063;53.210;6.504;2024-01-15T07:00:34;8.82;;;2.03;;
52057;SDS011;38063;53.210;6.504;2024-01-15T07:03:00;12.73;;;1.58;;
52057;SDS011;38063;53.210;6.504;2024-01-15T07:05:26;13.13;;;1.60;;
52057;SDS011;38063;53.210;6.504;2024-01-15T07:07:51;9.25;;;2.28;;
52057;SDS011;38063;53.210;6.504;2024-01-15T07:10:17;14.43;;;1.70;;
52057;SDS011;38063;53.210;6.504;2024-01-15T07:12:43;11.85;;;2.08;;
52057;SDS011;38063;53.210;6.504;2024-01-15T07:15:09;11.20;;;1.70;;
52057;SDS011;38063;53.210;6.504;2024-01-15T07:17:35;10.90;;;2.25;;
52057;SDS011;38063;53.210;6.504;2024-01-15T07:20:01;9.95;;;1.80;;
52057;SDS011;38063;53.210;6.504;2024-01-15T07:22:27;9.35;;;2.22;;
52057;SDS011;38063;53.210;6.504;2024-01-15T07:24:52;14.10;;;1.90;;
52057;SDS011;38063;53.210;6.504;2024-01-15T07:27:18;11.82;;;1.63;;
52057;SDS011;38063;53.210;6.504;2024-01-15T07:29:44;5.72;;;1.25;;
52057;SDS011;38063;53.210;6.504;2024-01-15T07:32:09;7.28;;;1.02;;
52057;SDS011;38063;53.210;6.504;2024-01-15T07:34:35;11.88;;;2.45;;
52057;SDS011;38063;53.210;6.504;2024-01-15T07:37:01;8.88;;;1.75;;
52057;SDS011;38063;53.210;6.504;2024-01-15T07:39:26;8.45;;;1.60;;
52057;SDS011;38063;53.210;6.504;2024-01-15T07:41:53;7.82;;;1.40;;
52057;SDS011;38063;53.210;6.504;2024-01-15T07:44:19;8.50;;;1.63;;
52057;SDS011;38063;53.210;6.504;2024-01-15T07:46:48;7.38;;;1.60;;
52057;SDS011;38063;53.210;6.504;2024-01-15T07:49:14;8.68;;;1.80;;
52057;SDS011;38063;53.210;6.504;2024-01-15T07:51:39;6.55;;;1.25;;
52057;SDS011;38063;53.210;6.504;2024-01-15T07:54:05;10.48;;;1.92;;
52057;SDS011;38063;53.210;6.504;2024-01-15T07:56:31;8.85;;;1.42;;
52057;SDS011;38063;53.210;6.504;2024-01-15T07:58:57;14.88;;;1.80;;
52057;SDS011;38063;53.210;6.504;2024-01-15T08:01:23;14.48;;;1.88;;
52057;SDS011;38063;53.210;6.504;2024-01-15T08:03:49;9.07;;;1.60;;
52057;SDS011;38063;53.210;6.504;2024-01-15T08:06:14;5.05;;;1.25;;
52057;SDS011;38063;53.210;6.504;2024-01-15T08:08:40;9.68;;;1.63;;
52057;SDS011;38063;53.210;6.504;2024-01-15T08:11:06;6.55;;;1.67;;
52057;SDS011;38063;53.210;6.504;2024-01-15T08:13:32;7.53;;;1.55;;
52057;SDS011;38063;53.210;6.504;2024-01-15T08:15:57;11.10;;;1.50;;
52057;SDS011;38063;53.210;6.504;2024-01-15T08:18:23;9.02;;;1.30;;
52057;SDS011;38063;53.210;6.504;2024-01-15T08:20:49;11.48;;;2.05;;
52057;SDS011;38063;53.210;6.504;2024-01-15T08:23:16;14.93;;;1.65;;
52057;SDS011;38063;53.210;6.504;2024-01-15T08:25:42;7.35;;;1.38;;
52057;SDS011;38063;53.210;6.504;2024-01-15T08:28:07;3.42;;;0.90;;
52057;SDS011;38063;53.210;6.504;2024-01-15T08:30:33;10.68;;;1.67;;
52057;SDS011;38063;53.210;6.504;2024-01-15T08:32:59;5.53;;;1.10;;
52057;SDS011;38063;53.210;6.504;2024-01-15T08:35:25;9.25;;;1.13;;
52057;SDS011;38063;53.210;6.504;2024-01-15T08:37:51;4.90;;;1.10;;
52057;SDS011;38063;53.210;6.504;2024-01-15T08:40:17;6.63;;;1.25;;
52057;SDS011;38063;53.210;6.504;2024-01-15T08:42:43;6.65;;;0.85;;
52057;SDS011;38063;53.210;6.504;2024-01-15T08:45:10;2.08;;;1.08;;
52057;SDS011;38063;53.210;6.504;2024-01-15T08:47:36;17.90;;;1.38;;
52057;SDS011;38063;53.210;6.504;2024-01-15T08:50:02;6.72;;;0.98;;
52057;SDS011;38063;53.210;6.504;2024-01-15T08:52:28;7.38;;;1.30;;
52057;SDS011;38063;53.210;6.504;2024-01-15T08:54:55;9.65;;;1.27;;
52057;SDS011;38063;53.210;6.504;2024-01-15T08:57:24;8.88;;;1.27;;
52057;SDS011;38063;53.210;6.504;2024-01-15T08:59:49;9.90;;;1.40;;
52057;SDS011;38063;53.210;6.504;2024-01-15T09:02:16;4.82;;;1.20;;
52057;SDS011;38063;53.210;6.504;2024-01-15T09:04:41;9.23;;;1.55;;
52057;SDS011;38063;53.210;6.504;2024-01-15T09:07:07;5.85;;;1.23;;
52057;SDS011;38063;53.210;6.504;2024-01-15T09:09:33;5.55;;;1.08;;
52057;SDS011;38063;53.210;6.504;2024-01-15T09:12:00;5.57;;;1.00;;
52057;SDS011;38063;53.210;6.504;2024-01-15T09:14:25;7.47;;;1.40;;
52057;SDS011;38063;53.210;6.504;2024-01-15T09:16:52;8.63;;;2.10;;
52057;SDS011;38063;53.210;6.504;2024-01-15T09:19:18;8.10;;;1.20;;
52057;SDS011;38063;53.210;6.504;2024-01-15T09:21:44;6.70;;;1.08;;
52057;SDS011;38063;53.210;6.504;2024-01-15T09:24:10;5.00;;;1.20;;
52057;SDS011;38063;53.210;6.504;2024-01-15T09:26:36;4.65;;;0.90;;
52057;SDS011;38063;53.210;6.504;2024-01-15T09:29:02;5.45;;;0.98;;
52057;SDS011;38063;53.210;6.504;2024-01-15T09:31:28;9.50;;;2.15;;
52057;SDS011;38063;53.210;6.504;2024-01-15T09:33:53;9.10;;;1.80;;
52057;SDS011;38063;53.210;6.504;2024-01-15T09:36:24;6.53;;;1.20;;
52057;SDS011;38063;53.210;6.504;2024-01-15T09:38:50;3.20;;;1.00;;
52057;SDS011;38063;53.210;6.504;2024-01-15T09:41:17;6.03;;;1.05;;
52057;SDS011;38063;53.210;6.504;2024-01-15T09:43:43;9.10;;;1.00;;
52057;SDS011;38063;53.210;6.504;2024-01-15T09:46:09;8.52;;;1.38;;
52057;SDS011;38063;53.210;6.504;2024-01-15T09:48:36;10.10;;;1.65;;
52057;SDS011;38063;53.210;6.504;2024-01-15T09:51:03;9.38;;;2.00;;
52057;SDS011;38063;53.210;6.504;2024-01-15T09:53:30;10.23;;;1.60;;
52057;SDS011;38063;53.210;6.504;2024-01-15T09:55:57;9.77;;;2.22;;
52057;SDS011;38063;53.210;6.504;2024-01-15T09:58:23;7.07;;;1.40;;
52057;SDS011;38063;53.210;6.504;2024-01-15T10:00:49;7.05;;;1.33;;
52057;SDS011;38063;53.210;6.504;2024-01-15T10:03:16;8.90;;;1.55;;
52057;SDS011;38063;53.210;6.504;2024-01-15T10:05:43;10.55;;;2.58;;
52057;SDS011;38063;53.210;6.504;2024-01-15T10:08:09;9.13;;;2.05;;
52057;SDS011;38063;53.210;6.504;2024-01-15T10:10:35;14.30;;;1.40;;
52057;SDS011;38063;53.210;6.504;2024-01-15T10:13:01;9.65;;;1.67;;
52057;SDS011;38063;53.210;6.504;2024-01-15T10:15:29;11.73;;;1.63;;
52057;SDS011;38063;53.210;6.504;2024-01-15T10:17:55;10.95;;;1.70;;
52057;SDS011;38063;53.210;6.504;2024-01-15T10:20:20;8.32;;;1.35;;
52057;SDS011;38063;53.210;6.504;2024-01-15T10:22:49;8.15;;;1.35;;
52057;SDS011;38063;53.210;6.504;2024-01-15T10:25:15;8.98;;;1.85;;
52057;SDS011;38063;53.210;6.504;2024-01-15T10:27:41;11.77;;;2.30;;
52057;SDS011;38063;53.210;6.504;2024-01-15T10:30:08;4.80;;;1.83;;
52057;SDS011;38063;53.210;6.504;2024-01-15T10:32:34;8.07;;;2.67;;
52057;SDS011;38063;53.210;6.504;2024-01-15T10:35:00;9.25;;;2.90;;
52057;SDS011;38063;53.210;6.504;2024-01-15T10:37:26;3.33;;;1.27;;
52057;SDS011;38063;53.210;6.504;2024-01-15T10:39:52;10.30;;;1.70;;
52057;SDS011;38063;53.210;6.504;2024-01-15T10:42:18;9.77;;;1.50;;
52057;SDS011;38063;53.210;6.504;2024-01-15T10:44:44;16.73;;;2.50;;
52057;SDS011;38063;53.210;6.504;2024-01-15T10:47:13;9.65;;;1.00;;
52057;SDS011;38063;53.210;6.504;2024-01-15T10:49:39;10.88;;;1.63;;
52057;SDS011;38063;53.210;6.504;2024-01-15T10:52:05;6.40;;;0.82;;
52057;SDS011;38063;53.210;6.504;2024-01-15T10:54:31;3.20;;;0.80;;
52057;SDS011;38063;53.210;6.504;2024-01-15T10:56:57;1.73;;;0.88;;
52057;SDS011;38063;53.210;6.504;2024-01-15T10:59:23;2.17;;;0.63;;
52057;SDS011;38063;53.210;6.504;2024-01-15T11:01:50;2.92;;;0.93;;
52057;SDS011;38063;53.210;6.504;2024-01-15T11:04:19;4.05;;;0.90;;
52057;SDS011;38063;53.210;6.504;2024-01-15T11:06:49;1.73;;;0.60;;
52057;SDS011;38063;53.210;6.504;2024-01-15T11:09:17;5.85;;;1.00;;
52057;SDS011;38063;53.210;6.504;2024-01-15T11:11:44;8.38;;;0.88;;
52057;SDS011;38063;53.210;6.504;2024-01-15T11:14:29;9.32;;;3.88;;
52057;SDS011;38063;53.210;6.504;2024-01-15T11:17:00;5.97;;;2.15;;
52057;SDS011;38063;53.210;6.504;2024-01-15T11:19:35;8.10;;;5.20;;
52057;SDS011;38063;53.210;6.504;2024-01-15T11:22:56;5.93;;;3.30;;
52057;SDS011;38063;53.210;6.504;2024-01-15T11:25:01;14.30;;;5.55;;
52057;SDS011;38063;53.210;6.504;2024-01-15T11:27:40;8.85;;;3.92;;
52057;SDS011;38063;53.210;6.504;2024-01-15T11:30:13;13.52;;;4.13;;
52057;SDS011;38063;53.210;6.504;2024-01-15T11:32:39;8.48;;;2.50;;
52057;SDS011;38063;53.210;6.504;2024-01-15T11:35:09;16.02;;;7.25;;
52057;SDS011;38063;53.210;6.504;2024-01-15T11:40:20;10.68;;;6.57;;
52057;SDS011;38063;53.210;6.504;2024-01-15T11:42:47;9.07;;;5.63;;
52057;SDS011;38063;53.210;6.504;2024-01-15T11:45:14;10.55;;;4.97;;
52057;SDS011;38063;53.210;6.504;2024-01-15T11:50:11;5.85;;;2.58;;
52057;SDS011;38063;53.210;6.504;2024-01-15T11:52:37;9.60;;;3.72;;
52057;SDS011;38063;53.210;6.504;2024-01-15T12:00:11;5.28;;;1.10;;
52057;SDS011;38063;53.210;6.504;2024-01-15T12:02:38;5.35;;;1.75;;
52057;SDS011;38063;53.210;6.504;2024-01-15T12:05:05;15.70;;;9.18;;
52057;SDS011;38063;53.210;6.504;2024-01-15T12:07:32;12.18;;;5.88;;
52057;SDS011;38063;53.210;6.504;2024-01-15T12:09:58;17.15;;;5.30;;
52057;SDS011;38063;53.210;6.504;2024-01-15T12:12:27;11.93;;;4.38;;
52057;SDS011;38063;53.210;6.504;2024-01-15T12:15:00;6.93;;;1.50;;
52057;SDS011;38063;53.210;6.504;2024-01-15T12:17:26;6.78;;;2.15;;
52057;SDS011;38063;53.210;6.504;2024-01-15T12:19:52;17.63;;;9.38;;
52057;SDS011;38063;53.210;6.504;2024-01-15T12:22:17;16.95;;;9.07;;
52057;SDS011;38063;53.210;6.504;2024-01-15T12:24:44;23.30;;;11.45;;
52057;SDS011;38063;53.210;6.504;2024-01-15T12:27:09;8.98;;;3.13;;
52057;SDS011;38063;53.210;6.504;2024-01-15T12:29:35;11.38;;;2.97;;
52057;SDS011;38063;53.210;6.504;2024-01-15T12:32:02;5.50;;;1.60;;
52057;SDS011;38063;53.210;6.504;2024-01-15T12:34:30;11.95;;;2.60;;
52057;SDS011;38063;53.210;6.504;2024-01-15T12:36:57;10.25;;;3.63;;
52057;SDS011;38063;53.210;6.504;2024-01-15T12:39:24;11.57;;;4.38;;
52057;SDS011;38063;53.210;6.504;2024-01-15T12:41:50;14.68;;;4.57;;
52057;SDS011;38063;53.210;6.504;2024-01-15T12:44:16;15.07;;;6.53;;
52057;SDS011;38063;53.210;6.504;2024-01-15T12:46:42;17.90;;;6.13;;
52057;SDS011;38063;53.210;6.504;2024-01-15T12:49:08;14.73;;;4.97;;
52057;SDS011;38063;53.210;6.504;2024-01-15T12:51:37;9.13;;;3.72;;
52057;SDS011;38063;53.210;6.504;2024-01-15T12:54:03;14.52;;;4.43;;
52057;SDS011;38063;53.210;6.504;2024-01-15T12:56:29;15.95;;;5.60;;
52057;SDS011;38063;53.210;6.504;2024-01-15T12:58:55;14.05;;;5.20;;
52057;SDS011;38063;53.210;6.504;2024-01-15T13:01:21;11.98;;;3.80;;
52057;SDS011;38063;53.210;6.504;2024-01-15T13:03:47;9.85;;;1.70;;
52057;SDS011;38063;53.210;6.504;2024-01-15T13:06:12;12.52;;;1.83;;
52057;SDS011;38063;53.210;6.504;2024-01-15T13:08:38;6.60;;;1.70;;
52057;SDS011;38063;53.210;6.504;2024-01-15T13:11:04;16.63;;;2.15;;
52057;SDS011;38063;53.210;6.504;2024-01-15T13:13:30;9.98;;;2.00;;
52057;SDS011;38063;53.210;6.504;2024-01-15T13:15:59;16.98;;;1.88;;
52057;SDS011;38063;53.210;6.504;2024-01-15T13:18:25;11.93;;;2.15;;
52057;SDS011;38063;53.210;6.504;2024-01-15T13:20:51;12.43;;;2.55;;
52057;SDS011;38063;53.210;6.504;2024-01-15T13:23:16;8.27;;;1.63;;
52057;SDS011;38063;53.210;6.504;2024-01-15T13:25:42;5.70;;;1.70;;
52057;SDS011;38063;53.210;6.504;2024-01-15T13:28:07;5.80;;;1.83;;
52057;SDS011;38063;53.210;6.504;2024-01-15T13:30:33;12.63;;;3.40;;
52057;SDS011;38063;53.210;6.504;2024-01-15T13:32:59;8.40;;;1.65;;
52057;SDS011;38063;53.210;6.504;2024-01-15T13:35:29;19.48;;;4.20;;
52057;SDS011;38063;53.210;6.504;2024-01-15T13:37:55;5.97;;;1.25;;
52057;SDS011;38063;53.210;6.504;2024-01-15T13:40:20;8.10;;;1.48;;
52057;SDS011;38063;53.210;6.504;2024-01-15T13:42:47;9.80;;;1.73;;
52057;SDS011;38063;53.210;6.504;2024-01-15T13:45:13;16.20;;;2.80;;
52057;SDS011;38063;53.210;6.504;2024-01-15T13:47:40;10.50;;;2.80;;
52057;SDS011;38063;53.210;6.504;2024-01-15T13:50:07;10.23;;;2.03;;
52057;SDS011;38063;53.210;6.504;2024-01-15T13:52:33;10.65;;;3.42;;
52057;SDS011;38063;53.210;6.504;2024-01-15T13:54:59;11.70;;;3.70;;
52057;SDS011;38063;53.210;6.504;2024-01-15T13:57:24;17.63;;;4.72;;
52057;SDS011;38063;53.210;6.504;2024-01-15T13:59:50;9.52;;;2.20;;
52057;SDS011;38063;53.210;6.504;2024-01-15T14:02:16;19.48;;;6.07;;
52057;SDS011;38063;53.210;6.504;2024-01-15T14:04:41;16.90;;;5.13;;
52057;SDS011;38063;53.210;6.504;2024-01-15T14:07:07;20.58;;;7.30;;
52057;SDS011;38063;53.210;6.504;2024-01-15T14:09:33;21.25;;;8.10;;
52057;SDS011;38063;53.210;6.504;2024-01-15T14:11:58;25.02;;;9.80;;
52057;SDS011;38063;53.210;6.504;2024-01-15T14:14:24;15.38;;;3.85;;
52057;SDS011;38063;53.210;6.504;2024-01-15T14:16:50;18.27;;;9.75;;
52057;SDS011;38063;53.210;6.504;2024-01-15T14:19:16;17.55;;;7.97;;
52057;SDS011;38063;53.210;6.504;2024-01-15T14:21:43;13.00;;;4.78;;
52057;SDS011;38063;53.210;6.504;2024-01-15T14:24:08;22.42;;;8.63;;
52057;SDS011;38063;53.210;6.504;2024-01-15T14:26:34;9.02;;;2.92;;
52057;SDS011;38063;53.210;6.504;2024-01-15T14:29:00;7.72;;;2.17;;
52057;SDS011;38063;53.210;6.504;2024-01-15T14:31:25;6.65;;;1.25;;
52057;SDS011;38063;53.210;6.504;2024-01-15T14:33:53;11.45;;;1.95;;
52057;SDS011;38063;53.210;6.504;2024-01-15T14:36:20;24.33;;;3.08;;
52057;SDS011;38063;53.210;6.504;2024-01-15T14:38:46;11.98;;;1.23;;
52057;SDS011;38063;53.210;6.504;2024-01-15T14:41:11;9.38;;;2.45;;
52057;SDS011;38063;53.210;6.504;2024-01-15T14:43:38;8.13;;;1.35;;
52057;SDS011;38063;53.210;6.504;2024-01-15T14:46:03;8.20;;;1.80;;